sensor_id;sensor_type;location;lat;lon;timestamp;P1;durP1;ratioP1;P2;durP2;ratioP2
25319;SDS011;13256;49.012;8.610;2022-12-18T00:00:05;35.95;;;13.00;;
25319;SDS011;13256;49.012;8.610;2022-12-18T00:02:57;43.95;;;17.05;;
25319;SDS011;13256;49.012;8.610;2022-12-18T00:08:47;34.35;;;13.75;;
25319;SDS011;13256;49.012;8.610;2022-12-18T00:11:15;43.53;;;15.63;;
25319;SDS011;13256;49.012;8.610;2022-12-18T00:13:44;35.72;;;17.52;;
25319;SDS011;13256;49.012;8.610;2022-12-18T00:16:12;47.50;;;17.25;;
25319;SDS011;13256;49.012;8.610;2022-12-18T00:18:47;30.15;;;12.50;;
25319;SDS011;13256;49.012;8.610;2022-12-18T00:21:14;31.60;;;12.32;;
25319;SDS011;13256;49.012;8.610;2022-12-18T00:23:44;28.60;;;11.65;;
25319;SDS011;13256;49.012;8.610;2022-12-18T00:26:16;30.77;;;11.57;;
25319;SDS011;13256;49.012;8.610;2022-12-18T00:28:54;36.93;;;15.50;;
25319;SDS011;13256;49.012;8.610;2022-12-18T00:31:24;37.60;;;14.70;;
25319;SDS011;13256;49.012;8.610;2022-12-18T00:33:54;33.88;;;14.07;;
25319;SDS011;13256;49.012;8.610;2022-12-18T00:36:23;41.28;;;15.77;;
25319;SDS011;13256;49.012;8.610;2022-12-18T00:44:45;33.85;;;13.57;;
25319;SDS011;13256;49.012;8.610;2022-12-18T00:47:12;35.05;;;12.85;;
25319;SDS011;13256;49.012;8.610;2022-12-18T00:49:41;40.80;;;16.30;;
25319;SDS011;13256;49.012;8.610;2022-12-18T00:52:08;28.13;;;13.15;;
25319;SDS011;13256;49.012;8.610;2022-12-18T00:54:39;36.75;;;14.35;;
25319;SDS011;13256;49.012;8.610;2022-12-18T00:57:06;36.38;;;15.27;;
25319;SDS011;13256;49.012;8.610;2022-12-18T00:59:39;35.90;;;15.10;;
25319;SDS011;13256;49.012;8.610;2022-12-18T01:02:11;36.17;;;15.90;;
25319;SDS011;13256;49.012;8.610;2022-12-18T01:04:40;36.72;;;13.38;;
25319;SDS011;13256;49.012;8.610;2022-12-18T01:07:06;33.15;;;15.40;;
25319;SDS011;13256;49.012;8.610;2022-12-18T01:09:34;36.95;;;15.98;;
25319;SDS011;13256;49.012;8.610;2022-12-18T01:12:00;35.50;;;16.23;;
25319;SDS011;13256;49.012;8.610;2022-12-18T01:14:33;29.15;;;14.75;;
25319;SDS011;13256;49.012;8.610;2022-12-18T01:17:02;35.90;;;14.75;;
25319;SDS011;13256;49.012;8.610;2022-12-18T01:19:32;39.20;;;17.88;;
25319;SDS011;13256;49.012;8.610;2022-12-18T01:22:03;25.75;;;11.98;;
25319;SDS011;13256;49.012;8.610;2022-12-18T01:24:34;25.63;;;11.38;;
25319;SDS011;13256;49.012;8.610;2022-12-18T01:27:02;36.42;;;14.70;;
25319;SDS011;13256;49.012;8.610;2022-12-18T01:29:29;30.60;;;13.90;;
25319;SDS011;13256;49.012;8.610;2022-12-18T01:31:55;42.38;;;13.30;;
25319;SDS011;13256;49.012;8.610;2022-12-18T01:34:23;39.55;;;15.60;;
25319;SDS011;13256;49.012;8.610;2022-12-18T01:36:52;28.65;;;12.30;;
25319;SDS011;13256;49.012;8.610;2022-12-18T01:39:24;38.70;;;16.38;;
25319;SDS011;13256;49.012;8.610;2022-12-18T01:41:50;27.40;;;12.80;;
25319;SDS011;13256;49.012;8.610;2022-12-18T01:47:23;30.83;;;14.67;;
25319;SDS011;13256;49.012;8.610;2022-12-18T01:49:57;27.33;;;11.80;;
25319;SDS011;13256;49.012;8.610;2022-12-18T01:52:28;28.13;;;12.07;;
25319;SDS011;13256;49.012;8.610;2022-12-18T01:55:09;21.02;;;10.45;;
25319;SDS011;13256;49.012;8.610;2022-12-18T01:57:37;29.20;;;13.07;;
25319;SDS011;13256;49.012;8.610;2022-12-18T02:00:14;41.25;;;16.48;;
25319;SDS011;13256;49.012;8.610;2022-12-18T02:02:46;31.48;;;13.45;;
25319;SDS011;13256;49.012;8.610;2022-12-18T02:05:35;32.22;;;13.52;;
25319;SDS011;13256;49.012;8.610;2022-12-18T02:11:04;44.67;;;18.73;;
25319;SDS011;13256;49.012;8.610;2022-12-18T02:16:25;29.88;;;12.00;;
25319;SDS011;13256;49.012;8.610;2022-12-18T02:19:06;38.20;;;15.93;;
25319;SDS011;13256;49.012;8.610;2022-12-18T02:27:41;33.13;;;11.10;;
25319;SDS011;13256;49.012;8.610;2022-12-18T02:30:15;31.90;;;11.35;;
25319;SDS011;13256;49.012;8.610;2022-12-18T02:32:44;26.20;;;9.80;;
25319;SDS011;13256;49.012;8.610;2022-12-18T02:35:17;22.50;;;9.77;;
25319;SDS011;13256;49.012;8.610;2022-12-18T02:37:55;31.90;;;10.43;;
25319;SDS011;13256;49.012;8.610;2022-12-18T02:40:24;33.90;;;15.10;;
25319;SDS011;13256;49.012;8.610;2022-12-18T02:42:53;37.85;;;16.85;;
25319;SDS011;13256;49.012;8.610;2022-12-18T02:45:22;37.30;;;13.80;;
25319;SDS011;13256;49.012;8.610;2022-12-18T02:47:52;44.72;;;17.23;;
25319;SDS011;13256;49.012;8.610;2022-12-18T02:50:35;40.15;;;17.33;;
25319;SDS011;13256;49.012;8.610;2022-12-18T02:53:20;28.08;;;13.07;;
25319;SDS011;13256;49.012;8.610;2022-12-18T02:56:19;24.48;;;10.57;;
25319;SDS011;13256;49.012;8.610;2022-12-18T02:58:59;24.75;;;11.48;;
25319;SDS011;13256;49.012;8.610;2022-12-18T03:10:13;39.90;;;14.07;;
25319;SDS011;13256;49.012;8.610;2022-12-18T03:12:52;28.50;;;11.50;;
25319;SDS011;13256;49.012;8.610;2022-12-18T03:15:28;26.60;;;10.43;;
25319;SDS011;13256;49.012;8.610;2022-12-18T03:18:10;38.75;;;14.98;;
25319;SDS011;13256;49.012;8.610;2022-12-18T03:20:55;37.78;;;14.73;;
25319;SDS011;13256;49.012;8.610;2022-12-18T03:23:27;29.08;;;12.77;;
25319;SDS011;13256;49.012;8.610;2022-12-18T03:26:06;33.88;;;12.30;;
25319;SDS011;13256;49.012;8.610;2022-12-18T03:28:42;28.67;;;12.32;;
25319;SDS011;13256;49.012;8.610;2022-12-18T03:31:18;29.25;;;11.35;;
25319;SDS011;13256;49.012;8.610;2022-12-18T03:36:18;24.85;;;11.85;;
25319;SDS011;13256;49.012;8.610;2022-12-18T03:38:50;37.65;;;12.55;;
25319;SDS011;13256;49.012;8.610;2022-12-18T03:41:52;29.42;;;10.85;;
25319;SDS011;13256;49.012;8.610;2022-12-18T03:47:27;25.55;;;12.27;;
25319;SDS011;13256;49.012;8.610;2022-12-18T03:50:17;22.00;;;10.80;;
25319;SDS011;13256;49.012;8.610;2022-12-18T03:55:46;35.22;;;11.60;;
25319;SDS011;13256;49.012;8.610;2022-12-18T03:58:17;26.30;;;11.23;;
25319;SDS011;13256;49.012;8.610;2022-12-18T04:01:05;22.35;;;10.75;;
25319;SDS011;13256;49.012;8.610;2022-12-18T04:03:34;26.73;;;9.70;;
25319;SDS011;13256;49.012;8.610;2022-12-18T04:06:05;27.88;;;10.45;;
25319;SDS011;13256;49.012;8.610;2022-12-18T04:08:33;25.90;;;10.77;;
25319;SDS011;13256;49.012;8.610;2022-12-18T04:11:06;30.73;;;10.20;;
25319;SDS011;13256;49.012;8.610;2022-12-18T04:13:39;29.55;;;10.10;;
25319;SDS011;13256;49.012;8.610;2022-12-18T04:16:18;25.63;;;10.43;;
25319;SDS011;13256;49.012;8.610;2022-12-18T04:18:51;24.23;;;8.75;;
25319;SDS011;13256;49.012;8.610;2022-12-18T04:21:22;26.73;;;10.50;;
25319;SDS011;13256;49.012;8.610;2022-12-18T04:23:51;27.02;;;10.77;;
25319;SDS011;13256;49.012;8.610;2022-12-18T04:26:22;23.88;;;9.13;;
25319;SDS011;13256;49.012;8.610;2022-12-18T04:29:12;19.73;;;8.35;;
25319;SDS011;13256;49.012;8.610;2022-12-18T04:31:39;24.98;;;9.25;;
25319;SDS011;13256;49.012;8.610;2022-12-18T04:34:06;21.98;;;10.90;;
25319;SDS011;13256;49.012;8.610;2022-12-18T04:39:07;23.50;;;9.32;;
25319;SDS011;13256;49.012;8.610;2022-12-18T04:41:34;20.65;;;10.77;;
25319;SDS011;13256;49.012;8.610;2022-12-18T04:44:02;24.42;;;10.07;;
25319;SDS011;13256;49.012;8.610;2022-12-18T04:46:31;22.80;;;9.68;;
25319;SDS011;13256;49.012;8.610;2022-12-18T04:49:02;25.17;;;10.30;;
25319;SDS011;13256;49.012;8.610;2022-12-18T04:51:32;24.17;;;9.98;;
25319;SDS011;13256;49.012;8.610;2022-12-18T04:53:58;28.75;;;10.43;;
25319;SDS011;13256;49.012;8.610;2022-12-18T04:56:25;23.05;;;8.50;;
25319;SDS011;13256;49.012;8.610;2022-12-18T04:58:54;21.65;;;9.52;;
25319;SDS011;13256;49.012;8.610;2022-12-18T05:01:21;30.52;;;11.93;;
25319;SDS011;13256;49.012;8.610;2022-12-18T05:03:48;24.13;;;10.55;;
25319;SDS011;13256;49.012;8.610;2022-12-18T05:06:17;26.58;;;8.27;;
25319;SDS011;13256;49.012;8.610;2022-12-18T05:08:43;27.70;;;10.15;;
25319;SDS011;13256;49.012;8.610;2022-12-18T05:11:15;28.80;;;11.02;;
25319;SDS011;13256;49.012;8.610;2022-12-18T05:13:46;22.63;;;9.88;;
25319;SDS011;13256;49.012;8.610;2022-12-18T05:16:19;20.33;;;9.55;;
25319;SDS011;13256;49.012;8.610;2022-12-18T05:18:45;22.40;;;10.52;;
25319;SDS011;13256;49.012;8.610;2022-12-18T05:21:15;25.30;;;10.63;;
25319;SDS011;13256;49.012;8.610;2022-12-18T05:23:46;21.42;;;9.38;;
25319;SDS011;13256;49.012;8.610;2022-12-18T05:26:16;16.75;;;8.07;;
25319;SDS011;13256;49.012;8.610;2022-12-18T05:28:44;23.20;;;10.32;;
25319;SDS011;13256;49.012;8.610;2022-12-18T05:31:13;18.20;;;8.82;;
25319;SDS011;13256;49.012;8.610;2022-12-18T05:33:40;21.10;;;9.93;;
25319;SDS011;13256;49.012;8.610;2022-12-18T05:36:08;29.77;;;11.18;;
25319;SDS011;13256;49.012;8.610;2022-12-18T05:38:37;17.50;;;8.95;;
25319;SDS011;13256;49.012;8.610;2022-12-18T05:41:05;19.80;;;8.90;;
25319;SDS011;13256;49.012;8.610;2022-12-18T05:43:33;21.88;;;10.90;;
25319;SDS011;13256;49.012;8.610;2022-12-18T05:46:03;27.17;;;11.35;;
25319;SDS011;13256;49.012;8.610;2022-12-18T05:48:41;27.55;;;8.95;;
25319;SDS011;13256;49.012;8.610;2022-12-18T05:51:10;16.63;;;7.82;;
25319;SDS011;13256;49.012;8.610;2022-12-18T05:53:40;23.17;;;9.18;;
25319;SDS011;13256;49.012;8.610;2022-12-18T05:56:16;22.17;;;8.95;;
25319;SDS011;13256;49.012;8.610;2022-12-18T05:58:46;22.90;;;10.07;;
25319;SDS011;13256;49.012;8.610;2022-12-18T06:01:18;19.42;;;8.88;;
25319;SDS011;13256;49.012;8.610;2022-12-18T06:03:47;20.65;;;10.25;;
25319;SDS011;13256;49.012;8.610;2022-12-18T06:06:21;17.98;;;8.23;;
25319;SDS011;13256;49.012;8.610;2022-12-18T06:08:50;17.98;;;7.55;;
25319;SDS011;13256;49.012;8.610;2022-12-18T06:11:21;22.85;;;8.20;;
25319;SDS011;13256;49.012;8.610;2022-12-18T06:16:24;15.07;;;8.10;;
25319;SDS011;13256;49.012;8.610;2022-12-18T06:19:00;18.88;;;8.85;;
25319;SDS011;13256;49.012;8.610;2022-12-18T06:21:29;19.67;;;9.75;;
25319;SDS011;13256;49.012;8.610;2022-12-18T06:23:57;19.27;;;9.77;;
25319;SDS011;13256;49.012;8.610;2022-12-18T06:26:26;28.80;;;10.27;;
25319;SDS011;13256;49.012;8.610;2022-12-18T06:28:54;19.52;;;7.88;;
25319;SDS011;13256;49.012;8.610;2022-12-18T06:31:21;18.20;;;7.32;;
25319;SDS011;13256;49.012;8.610;2022-12-18T06:33:48;21.08;;;9.10;;
25319;SDS011;13256;49.012;8.610;2022-12-18T06:36:17;23.52;;;9.18;;
25319;SDS011;13256;49.012;8.610;2022-12-18T06:38:49;21.02;;;9.20;;
25319;SDS011;13256;49.012;8.610;2022-12-18T06:41:16;17.90;;;7.65;;
25319;SDS011;13256;49.012;8.610;2022-12-18T06:43:45;19.73;;;9.23;;
25319;SDS011;13256;49.012;8.610;2022-12-18T06:46:11;23.38;;;8.40;;
25319;SDS011;13256;49.012;8.610;2022-12-18T06:48:40;23.33;;;9.48;;
25319;SDS011;13256;49.012;8.610;2022-12-18T06:51:10;18.85;;;7.55;;
25319;SDS011;13256;49.012;8.610;2022-12-18T06:53:36;23.42;;;9.38;;
25319;SDS011;13256;49.012;8.610;2022-12-18T06:56:05;22.40;;;8.18;;
25319;SDS011;13256;49.012;8.610;2022-12-18T06:58:36;16.20;;;8.13;;
25319;SDS011;13256;49.012;8.610;2022-12-18T07:01:09;27.20;;;8.90;;
25319;SDS011;13256;49.012;8.610;2022-12-18T07:03:43;20.73;;;9.27;;
25319;SDS011;13256;49.012;8.610;2022-12-18T07:06:17;22.08;;;9.00;;
25319;SDS011;13256;49.012;8.610;2022-12-18T07:08:48;27.35;;;10.30;;
25319;SDS011;13256;49.012;8.610;2022-12-18T07:11:21;22.13;;;9.30;;
25319;SDS011;13256;49.012;8.610;2022-12-18T07:13:51;33.65;;;13.93;;
25319;SDS011;13256;49.012;8.610;2022-12-18T07:16:20;38.03;;;14.55;;
25319;SDS011;13256;49.012;8.610;2022-12-18T07:18:52;25.17;;;13.18;;
25319;SDS011;13256;49.012;8.610;2022-12-18T07:21:22;32.90;;;13.80;;
25319;SDS011;13256;49.012;8.610;2022-12-18T07:23:52;44.10;;;18.40;;
25319;SDS011;13256;49.012;8.610;2022-12-18T07:26:22;45.25;;;18.77;;
25319;SDS011;13256;49.012;8.610;2022-12-18T07:28:49;40.20;;;15.20;;
25319;SDS011;13256;49.012;8.610;2022-12-18T07:31:17;27.70;;;13.35;;
25319;SDS011;13256;49.012;8.610;2022-12-18T07:33:48;29.88;;;12.77;;
25319;SDS011;13256;49.012;8.610;2022-12-18T07:36:17;34.17;;;13.50;;
25319;SDS011;13256;49.012;8.610;2022-12-18T07:38:46;32.13;;;12.00;;
25319;SDS011;13256;49.012;8.610;2022-12-18T07:41:15;25.90;;;10.55;;
25319;SDS011;13256;49.012;8.610;2022-12-18T07:43:42;29.20;;;11.30;;
25319;SDS011;13256;49.012;8.610;2022-12-18T07:46:10;30.65;;;12.50;;
25319;SDS011;13256;49.012;8.610;2022-12-18T07:48:43;25.80;;;8.38;;
25319;SDS011;13256;49.012;8.610;2022-12-18T07:54:06;21.80;;;8.48;;
25319;SDS011;13256;49.012;8.610;2022-12-18T07:56:33;21.33;;;10.38;;
25319;SDS011;13256;49.012;8.610;2022-12-18T07:59:05;24.42;;;11.18;;
25319;SDS011;13256;49.012;8.610;2022-12-18T08:01:31;16.10;;;8.05;;
25319;SDS011;13256;49.012;8.610;2022-12-18T08:04:03;16.00;;;8.20;;
25319;SDS011;13256;49.012;8.610;2022-12-18T08:06:30;21.92;;;11.15;;
25319;SDS011;13256;49.012;8.610;2022-12-18T08:08:59;30.02;;;14.32;;
25319;SDS011;13256;49.012;8.610;2022-12-18T08:11:26;42.20;;;16.40;;
25319;SDS011;13256;49.012;8.610;2022-12-18T08:13:56;35.78;;;14.38;;
25319;SDS011;13256;49.012;8.610;2022-12-18T08:16:24;40.80;;;16.27;;
25319;SDS011;13256;49.012;8.610;2022-12-18T08:18:52;39.20;;;16.10;;
25319;SDS011;13256;49.012;8.610;2022-12-18T08:21:24;35.70;;;15.98;;
25319;SDS011;13256;49.012;8.610;2022-12-18T08:23:53;40.50;;;15.65;;
25319;SDS011;13256;49.012;8.610;2022-12-18T08:26:22;41.50;;;17.25;;
25319;SDS011;13256;49.012;8.610;2022-12-18T08:28:49;42.97;;;17.50;;
25319;SDS011;13256;49.012;8.610;2022-12-18T08:31:17;43.33;;;15.90;;
25319;SDS011;13256;49.012;8.610;2022-12-18T08:33:48;39.92;;;15.93;;
25319;SDS011;13256;49.012;8.610;2022-12-18T08:36:18;40.03;;;16.38;;
25319;SDS011;13256;49.012;8.610;2022-12-18T08:38:46;38.60;;;14.68;;
25319;SDS011;13256;49.012;8.610;2022-12-18T08:41:18;40.35;;;15.55;;
25319;SDS011;13256;49.012;8.610;2022-12-18T08:43:51;37.70;;;15.48;;
25319;SDS011;13256;49.012;8.610;2022-12-18T08:46:38;36.80;;;16.33;;
25319;SDS011;13256;49.012;8.610;2022-12-18T08:49:10;35.80;;;15.30;;
25319;SDS011;13256;49.012;8.610;2022-12-18T08:51:39;43.50;;;17.23;;
25319;SDS011;13256;49.012;8.610;2022-12-18T08:54:07;41.58;;;17.80;;
25319;SDS011;13256;49.012;8.610;2022-12-18T08:56:43;53.38;;;23.40;;
25319;SDS011;13256;49.012;8.610;2022-12-18T08:59:13;52.50;;;22.70;;
25319;SDS011;13256;49.012;8.610;2022-12-18T09:01:47;51.25;;;20.20;;
25319;SDS011;13256;49.012;8.610;2022-12-18T09:04:27;37.58;;;17.70;;
25319;SDS011;13256;49.012;8.610;2022-12-18T09:06:57;42.85;;;15.98;;
25319;SDS011;13256;49.012;8.610;2022-12-18T09:09:24;38.15;;;15.73;;
25319;SDS011;13256;49.012;8.610;2022-12-18T09:14:29;36.38;;;14.05;;
25319;SDS011;13256;49.012;8.610;2022-12-18T09:16:55;35.10;;;14.27;;
25319;SDS011;13256;49.012;8.610;2022-12-18T09:19:22;38.13;;;15.40;;
25319;SDS011;13256;49.012;8.610;2022-12-18T09:21:49;36.80;;;15.98;;
25319;SDS011;13256;49.012;8.610;2022-12-18T09:24:18;28.75;;;13.23;;
25319;SDS011;13256;49.012;8.610;2022-12-18T09:26:48;39.28;;;14.63;;
25319;SDS011;13256;49.012;8.610;2022-12-18T09:29:18;34.67;;;14.90;;
25319;SDS011;13256;49.012;8.610;2022-12-18T09:31:47;39.72;;;16.33;;
25319;SDS011;13256;49.012;8.610;2022-12-18T09:34:13;40.90;;;17.95;;
25319;SDS011;13256;49.012;8.610;2022-12-18T09:36:47;38.67;;;16.35;;
25319;SDS011;13256;49.012;8.610;2022-12-18T09:39:14;44.17;;;16.30;;
25319;SDS011;13256;49.012;8.610;2022-12-18T09:47:33;30.88;;;14.48;;
25319;SDS011;13256;49.012;8.610;2022-12-18T09:49:53;33.28;;;15.23;;
25319;SDS011;13256;49.012;8.610;2022-12-18T09:52:31;22.02;;;10.77;;
25319;SDS011;13256;49.012;8.610;2022-12-18T10:00:45;28.55;;;9.65;;
25319;SDS011;13256;49.012;8.610;2022-12-18T10:03:14;31.67;;;11.63;;
25319;SDS011;13256;49.012;8.610;2022-12-18T10:08:42;39.15;;;15.77;;
25319;SDS011;13256;49.012;8.610;2022-12-18T10:11:22;41.25;;;15.85;;
25319;SDS011;13256;49.012;8.610;2022-12-18T10:17:00;41.42;;;16.33;;
25319;SDS011;13256;49.012;8.610;2022-12-18T10:25:02;39.38;;;16.67;;
25319;SDS011;13256;49.012;8.610;2022-12-18T10:27:51;73.47;;;25.88;;
25319;SDS011;13256;49.012;8.610;2022-12-18T10:30:22;65.28;;;25.23;;
25319;SDS011;13256;49.012;8.610;2022-12-18T10:32:52;47.90;;;20.90;;
25319;SDS011;13256;49.012;8.610;2022-12-18T10:35:24;41.80;;;17.70;;
25319;SDS011;13256;49.012;8.610;2022-12-18T10:38:04;44.25;;;19.15;;
25319;SDS011;13256;49.012;8.610;2022-12-18T10:43:27;46.30;;;18.05;;
25319;SDS011;13256;49.012;8.610;2022-12-18T10:48:37;40.50;;;17.20;;
25319;SDS011;13256;49.012;8.610;2022-12-18T10:53:59;37.83;;;16.45;;
25319;SDS011;13256;49.012;8.610;2022-12-18T10:56:29;37.38;;;17.05;;
25319;SDS011;13256;49.012;8.610;2022-12-18T11:04:51;41.35;;;18.13;;
25319;SDS011;13256;49.012;8.610;2022-12-18T11:07:21;41.08;;;18.00;;
25319;SDS011;13256;49.012;8.610;2022-12-18T11:10:01;35.40;;;17.42;;
25319;SDS011;13256;49.012;8.610;2022-12-18T11:12:28;39.60;;;16.45;;
25319;SDS011;13256;49.012;8.610;2022-12-18T11:14:58;38.65;;;17.67;;
25319;SDS011;13256;49.012;8.610;2022-12-18T11:17:34;43.45;;;17.63;;
25319;SDS011;13256;49.012;8.610;2022-12-18T11:20:05;50.92;;;18.70;;
25319;SDS011;13256;49.012;8.610;2022-12-18T11:22:44;37.78;;;18.83;;
25319;SDS011;13256;49.012;8.610;2022-12-18T11:25:26;36.15;;;17.10;;
25319;SDS011;13256;49.012;8.610;2022-12-18T11:28:04;42.95;;;18.00;;
25319;SDS011;13256;49.012;8.610;2022-12-18T11:30:54;41.33;;;17.13;;
25319;SDS011;13256;49.012;8.610;2022-12-18T11:34:10;42.65;;;15.50;;
25319;SDS011;13256;49.012;8.610;2022-12-18T11:36:56;38.20;;;16.17;;
25319;SDS011;13256;49.012;8.610;2022-12-18T11:50:52;42.08;;;17.05;;
25319;SDS011;13256;49.012;8.610;2022-12-18T11:53:22;40.40;;;17.02;;
25319;SDS011;13256;49.012;8.610;2022-12-18T11:59:07;41.80;;;16.92;;
25319;SDS011;13256;49.012;8.610;2022-12-18T12:01:50;44.60;;;16.85;;
25319;SDS011;13256;49.012;8.610;2022-12-18T12:04:29;43.13;;;17.30;;
25319;SDS011;13256;49.012;8.610;2022-12-18T12:18:22;41.45;;;17.77;;
25319;SDS011;13256;49.012;8.610;2022-12-18T12:21:07;43.38;;;17.83;;
25319;SDS011;13256;49.012;8.610;2022-12-18T12:27:05;49.13;;;18.58;;
25319;SDS011;13256;49.012;8.610;2022-12-18T12:29:45;47.05;;;19.05;;
25319;SDS011;13256;49.012;8.610;2022-12-18T12:32:29;48.42;;;18.60;;
25319;SDS011;13256;49.012;8.610;2022-12-18T12:35:18;46.83;;;19.38;;
25319;SDS011;13256;49.012;8.610;2022-12-18T12:38:10;45.42;;;18.27;;
25319;SDS011;13256;49.012;8.610;2022-12-18T12:40:45;49.92;;;19.10;;
25319;SDS011;13256;49.012;8.610;2022-12-18T12:43:56;48.33;;;19.55;;
25319;SDS011;13256;49.012;8.610;2022-12-18T12:46:28;48.67;;;18.20;;
25319;SDS011;13256;49.012;8.610;2022-12-18T12:49:00;50.28;;;18.92;;
25319;SDS011;13256;49.012;8.610;2022-12-18T12:51:38;49.22;;;19.58;;
25319;SDS011;13256;49.012;8.610;2022-12-18T12:54:17;51.20;;;20.38;;
25319;SDS011;13256;49.012;8.610;2022-12-18T13:03:13;45.45;;;19.00;;
25319;SDS011;13256;49.012;8.610;2022-12-18T13:20:39;66.38;;;24.17;;
25319;SDS011;13256;49.012;8.610;2022-12-18T13:28:22;48.90;;;19.65;;
25319;SDS011;13256;49.012;8.610;2022-12-18T13:30:55;52.03;;;20.02;;
25319;SDS011;13256;49.012;8.610;2022-12-18T13:33:38;60.85;;;23.83;;
25319;SDS011;13256;49.012;8.610;2022-12-18T13:36:35;82.18;;;30.00;;
25319;SDS011;13256;49.012;8.610;2022-12-18T13:39:11;69.35;;;26.77;;
25319;SDS011;13256;49.012;8.610;2022-12-18T13:44:32;50.63;;;20.75;;
25319;SDS011;13256;49.012;8.610;2022-12-18T13:47:36;46.38;;;20.23;;
25319;SDS011;13256;49.012;8.610;2022-12-18T13:50:22;66.13;;;23.55;;
25319;SDS011;13256;49.012;8.610;2022-12-18T13:53:16;41.42;;;16.08;;
25319;SDS011;13256;49.012;8.610;2022-12-18T13:55:48;30.35;;;14.02;;
25319;SDS011;13256;49.012;8.610;2022-12-18T13:58:15;39.83;;;15.88;;
25319;SDS011;13256;49.012;8.610;2022-12-18T14:00:43;34.58;;;15.23;;
25319;SDS011;13256;49.012;8.610;2022-12-18T14:03:18;36.35;;;13.93;;
25319;SDS011;13256;49.012;8.610;2022-12-18T14:05:54;35.75;;;15.07;;
25319;SDS011;13256;49.012;8.610;2022-12-18T14:08:24;31.70;;;13.13;;
25319;SDS011;13256;49.012;8.610;2022-12-18T14:10:54;33.55;;;13.60;;
25319;SDS011;13256;49.012;8.610;2022-12-18T14:13:33;35.28;;;14.75;;
25319;SDS011;13256;49.012;8.610;2022-12-18T14:16:04;34.08;;;13.60;;
25319;SDS011;13256;49.012;8.610;2022-12-18T14:18:46;35.92;;;13.80;;
25319;SDS011;13256;49.012;8.610;2022-12-18T14:21:20;30.08;;;13.23;;
25319;SDS011;13256;49.012;8.610;2022-12-18T14:23:49;38.78;;;14.25;;
25319;SDS011;13256;49.012;8.610;2022-12-18T14:26:49;33.17;;;13.35;;
25319;SDS011;13256;49.012;8.610;2022-12-18T14:29:18;36.78;;;14.45;;
25319;SDS011;13256;49.012;8.610;2022-12-18T14:32:03;33.70;;;13.95;;
25319;SDS011;13256;49.012;8.610;2022-12-18T14:34:30;34.80;;;13.25;;
25319;SDS011;13256;49.012;8.610;2022-12-18T14:36:57;42.67;;;14.73;;
25319;SDS011;13256;49.012;8.610;2022-12-18T14:39:30;37.20;;;14.80;;
25319;SDS011;13256;49.012;8.610;2022-12-18T14:41:58;44.28;;;17.50;;
25319;SDS011;13256;49.012;8.610;2022-12-18T14:44:25;37.17;;;15.60;;
25319;SDS011;13256;49.012;8.610;2022-12-18T14:47:15;37.45;;;17.42;;
25319;SDS011;13256;49.012;8.610;2022-12-18T14:49:43;42.55;;;15.93;;
25319;SDS011;13256;49.012;8.610;2022-12-18T14:52:19;37.10;;;15.95;;
25319;SDS011;13256;49.012;8.610;2022-12-18T14:54:56;35.08;;;13.80;;
25319;SDS011;13256;49.012;8.610;2022-12-18T14:57:28;32.65;;;13.20;;
25319;SDS011;13256;49.012;8.610;2022-12-18T15:00:15;38.92;;;13.45;;
25319;SDS011;13256;49.012;8.610;2022-12-18T15:02:58;32.17;;;13.05;;
25319;SDS011;13256;49.012;8.610;2022-12-18T15:05:28;40.55;;;13.85;;
25319;SDS011;13256;49.012;8.610;2022-12-18T15:07:58;39.53;;;15.13;;
25319;SDS011;13256;49.012;8.610;2022-12-18T15:10:32;36.33;;;13.52;;
25319;SDS011;13256;49.012;8.610;2022-12-18T15:23:24;39.50;;;12.85;;
25319;SDS011;13256;49.012;8.610;2022-12-18T15:26:00;35.78;;;13.63;;
25319;SDS011;13256;49.012;8.610;2022-12-18T15:28:48;35.17;;;13.65;;
25319;SDS011;13256;49.012;8.610;2022-12-18T15:31:28;36.92;;;12.98;;
25319;SDS011;13256;49.012;8.610;2022-12-18T15:36:34;32.50;;;12.35;;
25319;SDS011;13256;49.012;8.610;2022-12-18T15:39:03;39.63;;;15.32;;
25319;SDS011;13256;49.012;8.610;2022-12-18T15:41:35;37.17;;;13.48;;
25319;SDS011;13256;49.012;8.610;2022-12-18T15:44:03;40.70;;;14.95;;
25319;SDS011;13256;49.012;8.610;2022-12-18T15:46:49;38.38;;;13.68;;
25319;SDS011;13256;49.012;8.610;2022-12-18T15:49:23;35.25;;;13.77;;
25319;SDS011;13256;49.012;8.610;2022-12-18T15:51:58;39.78;;;14.45;;
25319;SDS011;13256;49.012;8.610;2022-12-18T15:54:30;70.38;;;27.85;;
25319;SDS011;13256;49.012;8.610;2022-12-18T15:57:15;58.15;;;25.65;;
25319;SDS011;13256;49.012;8.610;2022-12-18T15:59:51;42.00;;;16.95;;
25319;SDS011;13256;49.012;8.610;2022-12-18T16:02:19;36.17;;;15.90;;
25319;SDS011;13256;49.012;8.610;2022-12-18T16:04:49;36.05;;;14.68;;
25319;SDS011;13256;49.012;8.610;2022-12-18T16:07:18;39.22;;;13.93;;
25319;SDS011;13256;49.012;8.610;2022-12-18T16:09:52;39.53;;;13.95;;
25319;SDS011;13256;49.012;8.610;2022-12-18T16:12:20;36.72;;;14.25;;
25319;SDS011;13256;49.012;8.610;2022-12-18T16:14:48;37.65;;;14.23;;
25319;SDS011;13256;49.012;8.610;2022-12-18T16:17:17;36.47;;;12.77;;
25319;SDS011;13256;49.012;8.610;2022-12-18T16:19:44;37.22;;;13.85;;
25319;SDS011;13256;49.012;8.610;2022-12-18T16:22:15;41.22;;;14.65;;
25319;SDS011;13256;49.012;8.610;2022-12-18T16:24:48;36.05;;;13.55;;
25319;SDS011;13256;49.012;8.610;2022-12-18T16:27:16;34.80;;;12.73;;
25319;SDS011;13256;49.012;8.610;2022-12-18T16:29:43;44.30;;;15.70;;
25319;SDS011;13256;49.012;8.610;2022-12-18T16:32:14;38.08;;;14.13;;
25319;SDS011;13256;49.012;8.610;2022-12-18T16:34:45;33.20;;;13.07;;
25319;SDS011;13256;49.012;8.610;2022-12-18T16:37:13;38.65;;;13.30;;
25319;SDS011;13256;49.012;8.610;2022-12-18T16:39:41;29.13;;;13.48;;
25319;SDS011;13256;49.012;8.610;2022-12-18T16:42:10;40.28;;;14.50;;
25319;SDS011;13256;49.012;8.610;2022-12-18T16:44:45;34.40;;;13.30;;
25319;SDS011;13256;49.012;8.610;2022-12-18T16:47:12;32.63;;;14.85;;
25319;SDS011;13256;49.012;8.610;2022-12-18T16:49:41;43.47;;;15.30;;
25319;SDS011;13256;49.012;8.610;2022-12-18T16:52:12;37.38;;;14.00;;
25319;SDS011;13256;49.012;8.610;2022-12-18T16:54:44;32.78;;;13.98;;
25319;SDS011;13256;49.012;8.610;2022-12-18T16:57:15;35.97;;;14.15;;
25319;SDS011;13256;49.012;8.610;2022-12-18T16:59:51;39.55;;;13.45;;
25319;SDS011;13256;49.012;8.610;2022-12-18T17:02:19;30.55;;;13.02;;
25319;SDS011;13256;49.012;8.610;2022-12-18T17:04:52;44.95;;;14.95;;
25319;SDS011;13256;49.012;8.610;2022-12-18T17:07:21;40.88;;;14.63;;
25319;SDS011;13256;49.012;8.610;2022-12-18T17:09:49;35.20;;;14.27;;
25319;SDS011;13256;49.012;8.610;2022-12-18T17:12:16;35.45;;;12.48;;
25319;SDS011;13256;49.012;8.610;2022-12-18T17:14:43;39.25;;;13.85;;
25319;SDS011;13256;49.012;8.610;2022-12-18T17:17:12;34.30;;;13.75;;
25319;SDS011;13256;49.012;8.610;2022-12-18T17:19:49;36.33;;;13.10;;
25319;SDS011;13256;49.012;8.610;2022-12-18T17:22:18;33.90;;;13.45;;
25319;SDS011;13256;49.012;8.610;2022-12-18T17:24:45;44.97;;;15.38;;
25319;SDS011;13256;49.012;8.610;2022-12-18T17:27:14;33.92;;;14.02;;
25319;SDS011;13256;49.012;8.610;2022-12-18T17:29:43;37.33;;;15.15;;
25319;SDS011;13256;49.012;8.610;2022-12-18T17:32:15;41.13;;;15.07;;
25319;SDS011;13256;49.012;8.610;2022-12-18T17:34:44;34.22;;;13.80;;